Time;durP1;ratioP1;P1;durP2;ratioP2;P2;SDS_P1;SDS_P2;PMS_P1;PMS_P2;Temp;Humidity;BMP_temperature;BMP_pressure;BME280_temperature;BME280_humidity;BME280_pressure;Samples;Min_cycle;Max_cycle;Signal;HPM_P1;HPM_P2
2022/04/11 00:01:34;;;;;;;7.47;6.87;;;2.50;99.90;;;;;;5142356;27;20630;-83
2022/04/11 00:04:01;;;;;;;6.70;6.10;;;2.70;99.90;;;;;;5139062;27;20638;-83
2022/04/11 00:06:29;;;;;;;6.90;6.27;;;2.70;99.90;;;;;;5138834;27;20615;-83
2022/04/11 00:08:55;;;;;;;7.90;6.43;;;2.50;99.90;;;;;;5145885;27;20634;-83
2022/04/11 00:11:22;;;;;;;6.30;5.70;;;2.50;99.90;;;;;;5147528;27;20673;-83
2022/04/11 00:13:50;;;;;;;6.57;6.07;;;2.70;99.90;;;;;;5144293;27;20630;-83
2022/04/11 00:16:16;;;;;;;7.93;6.50;;;2.60;99.90;;;;;;5146254;27;20659;-83
2022/04/11 00:18:43;;;;;;;7.03;6.33;;;2.60;99.90;;;;;;5144856;27;20618;-83
2022/04/11 00:21:10;;;;;;;7.57;6.93;;;2.50;99.90;;;;;;5145647;27;21254;-83
2022/04/11 00:23:38;;;;;;;7.57;6.90;;;2.50;99.90;;;;;;5146449;27;20623;-83
2022/04/11 00:26:05;;;;;;;7.50;6.80;;;2.40;99.90;;;;;;5144329;27;21156;-83
2022/04/11 00:28:31;;;;;;;6.50;5.90;;;2.70;99.90;;;;;;5144800;27;20630;-83
2022/04/11 00:30:58;;;;;;;6.63;6.13;;;2.60;99.90;;;;;;5144236;27;20647;-83
2022/04/11 00:33:25;;;;;;;8.00;7.30;;;2.60;99.90;;;;;;5138471;27;20625;-83
2022/04/11 00:35:51;;;;;;;7.00;6.40;;;2.70;99.90;;;;;;5142078;27;20989;-83
2022/04/11 00:38:18;;;;;;;6.53;5.93;;;2.50;99.90;;;;;;5143356;27;20635;-83
2022/04/11 00:40:46;;;;;;;7.13;6.43;;;2.20;99.90;;;;;;5132953;27;22745;-83
2022/04/11 00:43:31;;;;;;;7.93;6.77;;;2.30;99.90;;;;;;5144082;27;20624;-83
2022/04/11 00:45:58;;;;;;;8.27;7.63;;;2.30;99.90;;;;;;5137912;27;20625;-83
2022/04/11 00:48:25;;;;;;;8.37;7.57;;;2.20;99.90;;;;;;5137341;27;20629;-83
2022/04/11 00:50:54;;;;;;;7.10;6.50;;;2.50;99.90;;;;;;5143260;27;20650;-83
2022/04/11 00:53:22;;;;;;;7.30;6.57;;;2.40;99.90;;;;;;5137498;27;20628;-82
2022/04/11 00:55:51;;;;;;;9.80;6.83;;;2.30;99.90;;;;;;5136210;27;20654;-83
2022/04/11 00:58:18;;;;;;;7.97;7.27;;;2.30;99.90;;;;;;5143289;27;20630;-83
2022/04/11 01:00:45;;;;;;;8.20;7.30;;;2.20;99.90;;;;;;5132852;27;20664;-83
2022/04/11 01:03:12;;;;;;;6.73;6.03;;;2.20;99.90;;;;;;5144728;27;20984;-83
2022/04/11 01:05:38;;;;;;;8.17;7.40;;;2.40;99.90;;;;;;5145899;27;20625;-83
2022/04/11 01:08:08;;;;;;;8.37;7.57;;;2.40;99.90;;;;;;5137071;27;20621;-82
2022/04/11 01:10:35;;;;;;;7.53;6.83;;;2.40;99.90;;;;;;5142823;27;21267;-82
2022/04/11 01:13:04;;;;;;;8.87;7.97;;;2.30;99.90;;;;;;5140757;27;20714;-82
2022/04/11 01:15:30;;;;;;;8.50;6.70;;;2.20;99.90;;;;;;5141013;27;20665;-82
2022/04/11 01:17:57;;;;;;;8.50;6.87;;;2.00;99.90;;;;;;5146187;27;20637;-82
2022/04/11 01:20:24;;;;;;;7.70;7.00;;;1.80;99.90;;;;;;5140635;27;20664;-83
2022/04/11 01:22:52;;;;;;;8.17;7.37;;;2.10;99.90;;;;;;5141635;27;20614;-84
2022/04/11 01:25:21;;;;;;;7.53;6.90;;;2.00;99.90;;;;;;5140079;27;20644;-83
2022/04/11 01:27:48;;;;;;;9.73;7.37;;;2.10;99.90;;;;;;5135732;27;20660;-82
2022/04/11 01:30:16;;;;;;;7.10;6.57;;;2.20;99.90;;;;;;5148500;27;20650;-83
2022/04/11 01:32:42;;;;;;;8.00;7.23;;;1.80;99.90;;;;;;5148790;27;20680;-82
2022/04/11 01:35:22;;;;;;;9.23;7.60;;;2.10;99.90;;;;;;5140011;27;20665;-82
2022/04/11 01:37:49;;;;;;;8.83;7.93;;;1.90;99.90;;;;;;5138674;27;20632;-81
2022/04/11 01:40:17;;;;;;;7.17;6.60;;;1.90;99.90;;;;;;5146776;27;20656;-82
2022/04/11 01:42:44;;;;;;;8.27;7.57;;;2.00;99.90;;;;;;5139469;27;20631;-82
2022/04/11 01:45:11;;;;;;;7.67;6.97;;;2.00;99.90;;;;;;5141653;27;21214;-82
2022/04/11 01:47:39;;;;;;;9.17;7.00;;;2.00;99.90;;;;;;5142223;27;21020;-82
2022/04/11 01:50:07;;;;;;;8.07;7.37;;;2.00;99.90;;;;;;5144725;27;20651;-82
2022/04/11 01:52:34;;;;;;;7.50;6.80;;;2.00;99.90;;;;;;5136476;27;20620;-82
2022/04/11 01:55:02;;;;;;;7.70;7.00;;;2.10;99.90;;;;;;5139829;27;20979;-82
2022/04/11 01:57:30;;;;;;;7.93;7.23;;;2.00;99.90;;;;;;5145358;27;20630;-82
2022/04/11 01:59:57;;;;;;;7.00;6.47;;;2.00;99.90;;;;;;5141547;27;20646;-83
2022/04/11 02:02:23;;;;;;;8.00;7.20;;;2.30;99.90;;;;;;5143779;27;20657;-82
2022/04/11 02:04:51;;;;;;;9.57;7.40;;;2.10;99.90;;;;;;5143209;27;20615;-83
2022/04/11 02:07:17;;;;;;;7.57;6.83;;;2.00;99.90;;;;;;5141879;27;21199;-82
2022/04/11 02:09:44;;;;;;;8.23;7.43;;;2.00;99.90;;;;;;5138990;27;20649;-82
2022/04/11 02:12:11;;;;;;;7.63;6.83;;;2.30;99.90;;;;;;5140363;27;20629;-83
2022/04/11 02:14:39;;;;;;;9.10;7.87;;;2.10;99.90;;;;;;5143200;27;20620;-83
2022/04/11 02:17:06;;;;;;;7.47;6.87;;;2.20;99.90;;;;;;5143898;27;21219;-81
2022/04/11 02:19:32;;;;;;;7.73;6.90;;;2.10;99.90;;;;;;5135577;27;20660;-81
2022/04/11 02:21:59;;;;;;;8.73;6.77;;;2.20;99.90;;;;;;5134607;27;20629;-82
2022/04/11 02:24:26;;;;;;;7.57;6.90;;;2.20;99.90;;;;;;5133133;27;21136;-82
2022/04/11 02:26:52;;;;;;;7.83;7.23;;;2.30;99.90;;;;;;5145124;27;21188;-82
2022/04/11 02:29:19;;;;;;;12.50;6.80;;;2.20;99.90;;;;;;5151138;27;20618;-81
2022/04/11 02:31:47;;;;;;;8.23;7.53;;;2.60;99.90;;;;;;5142577;27;20624;-82
2022/04/11 02:34:14;;;;;;;8.70;6.83;;;2.20;99.90;;;;;;5142436;27;20622;-82
2022/04/11 02:36:41;;;;;;;7.57;6.73;;;2.50;99.90;;;;;;5141309;27;20989;-82
2022/04/11 02:39:07;;;;;;;8.10;7.43;;;2.20;99.90;;;;;;5139734;27;20629;-82
2022/04/11 02:41:34;;;;;;;7.43;6.93;;;2.20;99.90;;;;;;5142322;27;20621;-82
2022/04/11 02:44:01;;;;;;;8.73;7.10;;;1.80;99.90;;;;;;5137974;27;21235;-82
2022/04/11 02:46:28;;;;;;;8.23;7.50;;;2.60;99.90;;;;;;5139348;27;20840;-83
2022/04/11 02:48:56;;;;;;;8.40;7.20;;;2.50;99.90;;;;;;5135986;27;20740;-83
2022/04/11 02:51:22;;;;;;;8.67;7.67;;;2.30;99.90;;;;;;5142993;27;21207;-82
2022/04/11 02:53:49;;;;;;;8.30;7.43;;;2.60;99.90;;;;;;5130367;27;20626;-82
2022/04/11 02:56:16;;;;;;;10.87;7.43;;;2.60;99.90;;;;;;5142323;27;20650;-82
2022/04/11 02:58:42;;;;;;;8.47;7.67;;;2.50;99.90;;;;;;5138436;27;20625;-82
2022/04/11 03:01:09;;;;;;;7.17;6.43;;;2.50;99.90;;;;;;5143212;27;20649;-82
2022/04/11 03:03:37;;;;;;;7.83;7.13;;;2.50;99.90;;;;;;5144092;27;20625;-82
2022/04/11 03:06:05;;;;;;;7.57;6.87;;;2.40;99.90;;;;;;5136692;27;21207;-82
2022/04/11 03:08:32;;;;;;;8.60;7.80;;;2.40;99.90;;;;;;5137828;27;20633;-83
2022/04/11 03:10:59;;;;;;;8.53;7.73;;;2.20;99.90;;;;;;5142314;27;20639;-82
2022/04/11 03:13:25;;;;;;;9.93;7.07;;;2.30;99.90;;;;;;5137090;27;20630;-82
2022/04/11 03:15:52;;;;;;;9.00;8.10;;;2.30;99.90;;;;;;5143344;27;20662;-82
2022/04/11 03:18:19;;;;;;;8.63;7.60;;;2.50;99.90;;;;;;5141165;27;20617;-82
2022/04/11 03:20:47;;;;;;;7.63;7.03;;;2.50;99.90;;;;;;5137969;27;20670;-82
2022/04/11 03:23:15;;;;;;;7.43;6.83;;;2.50;99.90;;;;;;5140293;27;20640;-83
2022/04/11 03:25:42;;;;;;;8.30;7.60;;;2.50;99.90;;;;;;5142235;27;20627;-83
2022/04/11 03:28:09;;;;;;;8.20;7.50;;;2.50;99.90;;;;;;5140701;27;20638;-82
2022/04/11 03:30:36;;;;;;;8.70;7.20;;;2.40;99.90;;;;;;5144112;27;21171;-82
2022/04/11 03:33:02;;;;;;;8.30;7.43;;;2.40;99.90;;;;;;5144059;27;20621;-83
2022/04/11 03:35:29;;;;;;;8.40;7.60;;;2.40;99.90;;;;;;5147091;27;20628;-82
2022/04/11 03:37:56;;;;;;;8.40;7.70;;;2.50;99.90;;;;;;5140684;27;20629;-82
2022/04/11 03:40:24;;;;;;;10.70;7.83;;;2.40;99.90;;;;;;5144824;27;20657;-81
2022/04/11 03:42:51;;;;;;;8.70;7.53;;;2.30;99.90;;;;;;5141716;27;20634;-82
2022/04/11 03:45:17;;;;;;;14.93;13.43;;;2.50;99.90;;;;;;5144749;27;20993;-83
2022/04/11 03:47:44;;;;;;;11.53;10.43;;;2.50;99.90;;;;;;5145293;27;20619;-83
2022/04/11 03:50:11;;;;;;;11.57;10.57;;;2.60;99.90;;;;;;5145511;27;21328;-83
2022/04/11 03:52:37;;;;;;;10.80;9.80;;;2.50;99.90;;;;;;5138361;27;21067;-83
2022/04/11 03:55:05;;;;;;;10.47;8.70;;;2.60;99.90;;;;;;5143797;27;20634;-82
2022/04/11 03:57:33;;;;;;;8.40;7.70;;;2.40;99.90;;;;;;5149517;27;21022;-83
2022/04/11 04:00:00;;;;;;;8.40;7.70;;;2.40;99.90;;;;;;5140850;27;20661;-82
2022/04/11 04:02:27;;;;;;;7.80;7.13;;;2.60;99.90;;;;;;5142304;27;21179;-83
2022/04/11 04:04:54;;;;;;;8.30;7.50;;;2.50;99.90;;;;;;5147591;27;20625;-82
2022/04/11 04:07:20;;;;;;;9.47;8.40;;;2.60;99.90;;;;;;5143263;27;20610;-83
2022/04/11 04:09:47;;;;;;;7.77;7.07;;;2.70;99.90;;;;;;5137699;27;20643;-81
2022/04/11 04:12:14;;;;;;;9.00;7.97;;;2.30;99.90;;;;;;5143802;27;21096;-82
2022/04/11 04:14:42;;;;;;;8.57;7.73;;;2.70;99.90;;;;;;5142005;27;21226;-83
2022/04/11 04:17:08;;;;;;;8.43;7.40;;;2.70;99.90;;;;;;5141897;27;21008;-83
2022/04/11 04:19:35;;;;;;;7.80;7.10;;;2.40;99.90;;;;;;5144745;27;20637;-83
2022/04/11 04:22:02;;;;;;;8.00;7.30;;;2.50;99.90;;;;;;5143059;27;20677;-82
2022/04/11 04:24:29;;;;;;;7.50;6.80;;;2.40;99.90;;;;;;5135141;27;20614;-83
2022/04/11 04:26:55;;;;;;;8.43;7.63;;;2.30;99.90;;;;;;5143678;27;21178;-82
2022/04/11 04:29:22;;;;;;;6.93;6.33;;;2.40;99.90;;;;;;5148254;27;20630;-81
2022/04/11 04:31:50;;;;;;;8.77;8.00;;;2.40;99.90;;;;;;5141523;27;20624;-83
2022/04/11 04:34:17;;;;;;;7.53;6.70;;;2.20;99.90;;;;;;5139135;27;20985;-82
2022/04/11 04:36:44;;;;;;;8.17;7.37;;;2.30;99.90;;;;;;5142049;27;20652;-82
2022/04/11 04:39:10;;;;;;;8.30;7.50;;;2.20;99.90;;;;;;5135598;27;21228;-82
2022/04/11 04:41:38;;;;;;;8.47;7.67;;;2.50;99.90;;;;;;5144438;27;20624;-84
2022/04/11 04:44:05;;;;;;;7.73;7.03;;;2.50;99.90;;;;;;5144157;27;21019;-83
2022/04/11 04:46:32;;;;;;;8.07;7.30;;;2.30;99.90;;;;;;5142342;27;21559;-82
2022/04/11 04:49:01;;;;;;;7.30;6.60;;;2.40;99.90;;;;;;5142998;27;20650;-83
2022/04/11 04:51:27;;;;;;;8.37;7.57;;;2.20;99.90;;;;;;5145425;27;20646;-82
2022/04/11 04:53:54;;;;;;;8.33;6.80;;;2.60;99.90;;;;;;5133566;27;21175;-81
2022/04/11 04:56:21;;;;;;;8.50;7.70;;;2.40;99.90;;;;;;5143126;27;20664;-81
2022/04/11 04:58:49;;;;;;;8.13;6.90;;;2.40;99.90;;;;;;5144047;27;20634;-83
2022/04/11 05:01:16;;;;;;;8.10;7.40;;;2.40;99.90;;;;;;5140769;27;20658;-83
2022/04/11 05:03:43;;;;;;;7.50;5.90;;;2.20;99.90;;;;;;5145135;27;20630;-84
2022/04/11 05:06:11;;;;;;;7.33;6.73;;;2.20;99.90;;;;;;5147164;27;20765;-83
2022/04/11 05:08:37;;;;;;;7.27;6.67;;;2.60;99.90;;;;;;5134421;27;20628;-84
2022/04/11 05:11:04;;;;;;;7.10;6.50;;;2.40;99.90;;;;;;5141066;27;20670;-83
2022/04/11 05:13:31;;;;;;;8.20;7.47;;;2.50;99.90;;;;;;5147470;27;20627;-84
2022/04/11 05:15:57;;;;;;;6.90;6.30;;;2.30;99.90;;;;;;5148003;27;20711;-83
2022/04/11 05:18:25;;;;;;;9.47;6.60;;;2.30;99.90;;;;;;5143692;27;20622;-83
2022/04/11 05:20:52;;;;;;;7.87;6.93;;;2.30;99.90;;;;;;5141085;27;20639;-84
2022/04/11 05:23:20;;;;;;;8.40;7.60;;;2.50;99.90;;;;;;5140772;27;20712;-83
2022/04/11 05:25:47;;;;;;;9.20;8.33;;;2.50;99.90;;;;;;5142051;27;20621;-82
2022/04/11 05:28:14;;;;;;;8.53;7.83;;;2.40;99.90;;;;;;5137570;27;20627;-83
2022/04/11 05:30:41;;;;;;;9.30;8.40;;;2.40;99.90;;;;;;5144463;27;20610;-83
2022/04/11 05:33:08;;;;;;;10.50;7.77;;;2.30;99.90;;;;;;5144929;27;20617;-83
2022/04/11 05:35:35;;;;;;;7.87;7.13;;;2.40;99.90;;;;;;5144895;27;20618;-83
2022/04/11 05:38:02;;;;;;;11.53;6.73;;;2.50;99.90;;;;;;5142520;27;20707;-83
2022/04/11 05:40:30;;;;;;;7.80;7.10;;;2.60;99.90;;;;;;5139831;27;20646;-83
2022/04/11 05:42:56;;;;;;;10.30;8.17;;;2.70;99.90;;;;;;5141003;27;21033;-83
2022/04/11 05:45:26;;;;;;;9.10;8.30;;;2.50;99.90;;;;;;5145363;27;20629;-83
2022/04/11 05:47:53;;;;;;;8.40;7.53;;;2.70;99.90;;;;;;5139017;27;20656;-82
2022/04/11 05:50:21;;;;;;;9.50;8.57;;;2.20;99.90;;;;;;5143716;27;20747;-83
2022/04/11 05:52:48;;;;;;;8.67;7.97;;;2.70;99.90;;;;;;5133555;27;21163;-83
2022/04/11 05:55:14;;;;;;;8.67;7.77;;;2.30;99.90;;;;;;5142349;27;20727;-83
2022/04/11 05:57:43;;;;;;;10.00;8.90;;;2.80;99.90;;;;;;5138682;27;20726;-81
2022/04/11 06:00:11;;;;;;;10.57;9.67;;;3.20;99.90;;;;;;5139084;27;21030;-82
2022/04/11 06:02:38;;;;;;;9.83;8.80;;;3.00;99.90;;;;;;5138278;27;20657;-82
2022/04/11 06:05:05;;;;;;;10.83;9.60;;;3.30;99.90;;;;;;5145458;27;20627;-82
2022/04/11 06:07:33;;;;;;;10.40;9.40;;;3.50;99.90;;;;;;5143865;27;20983;-82
2022/04/11 06:09:59;;;;;;;10.10;9.20;;;3.40;99.90;;;;;;5142932;27;20648;-83
2022/04/11 06:12:26;;;;;;;10.60;9.60;;;3.60;99.90;;;;;;5143531;27;21181;-82
2022/04/11 06:14:54;;;;;;;11.77;9.10;;;3.70;99.90;;;;;;5144225;27;20616;-82
2022/04/11 06:17:23;;;;;;;10.73;9.73;;;4.10;99.90;;;;;;5143804;27;20657;-83
2022/04/11 06:19:50;;;;;;;9.97;8.43;;;4.20;99.90;;;;;;5144643;27;20643;-82
2022/04/11 06:22:18;;;;;;;10.80;9.80;;;4.20;99.90;;;;;;5144937;27;20620;-82
2022/04/11 06:24:44;;;;;;;9.93;9.07;;;4.20;99.90;;;;;;5146262;27;20624;-82
2022/04/11 06:27:11;;;;;;;9.70;8.60;;;4.50;99.90;;;;;;5141849;27;20614;-83
2022/04/11 06:29:38;;;;;;;10.33;9.07;;;4.90;99.90;;;;;;5141505;27;21202;-83
2022/04/11 06:32:07;;;;;;;9.27;8.50;;;5.40;99.90;;;;;;5139384;27;20608;-82
2022/04/11 06:34:34;;;;;;;9.97;9.10;;;5.70;99.90;;;;;;5140335;27;20625;-83
2022/04/11 06:37:01;;;;;;;9.00;8.10;;;6.00;99.90;;;;;;5140190;27;20664;-82
2022/04/11 06:39:28;;;;;;;9.23;8.40;;;6.20;99.90;;;;;;5136166;27;20654;-82
2022/04/11 06:41:55;;;;;;;9.30;8.40;;;6.00;99.90;;;;;;5133378;27;20631;-83
2022/04/11 06:44:22;;;;;;;9.37;8.57;;;6.20;99.90;;;;;;5139198;27;20632;-83
2022/04/11 06:46:49;;;;;;;10.00;7.50;;;6.60;99.90;;;;;;5137083;27;20632;-83
2022/04/11 06:49:17;;;;;;;8.57;7.87;;;6.20;99.90;;;;;;5145376;27;20655;-83
2022/04/11 06:51:44;;;;;;;8.87;8.00;;;6.10;99.90;;;;;;5143468;27;20714;-83
2022/04/11 06:54:11;;;;;;;8.20;7.50;;;6.00;99.90;;;;;;5141966;27;20981;-84
2022/04/11 06:56:37;;;;;;;8.47;7.87;;;6.00;99.90;;;;;;5145114;27;20715;-83
2022/04/11 06:59:04;;;;;;;8.97;8.17;;;6.30;99.90;;;;;;5144864;27;20650;-82
2022/04/11 07:01:31;;;;;;;11.83;10.13;;;6.60;99.90;;;;;;5146055;27;21011;-82
2022/04/11 07:03:58;;;;;;;9.90;9.13;;;6.70;99.90;;;;;;5144173;27;20648;-83
2022/04/11 07:06:26;;;;;;;8.47;7.67;;;6.70;99.90;;;;;;5139008;27;20614;-84
2022/04/11 07:08:53;;;;;;;10.60;7.63;;;6.40;99.90;;;;;;5142658;27;20742;-87
2022/04/11 07:11:19;;;;;;;8.47;7.77;;;6.50;99.90;;;;;;5125577;27;20617;-83
2022/04/11 07:13:46;;;;;;;8.57;7.33;;;6.80;99.90;;;;;;5145071;27;20735;-84
2022/04/11 07:16:13;;;;;;;9.40;7.87;;;6.90;99.90;;;;;;5143798;27;20617;-83
2022/04/11 07:18:40;;;;;;;8.90;8.10;;;7.10;99.90;;;;;;5140684;27;20675;-83
2022/04/11 07:21:06;;;;;;;8.50;7.67;;;7.20;99.90;;;;;;5144553;27;20624;-83
2022/04/11 07:23:35;;;;;;;8.10;7.30;;;7.30;99.90;;;;;;5138731;27;20622;-82
2022/04/11 07:26:01;;;;;;;7.27;6.57;;;7.50;99.90;;;;;;5142989;27;20628;-83
2022/04/11 07:28:28;;;;;;;7.70;7.00;;;7.20;99.90;;;;;;5143709;27;20611;-83
2022/04/11 07:30:55;;;;;;;8.57;6.57;;;7.60;99.90;;;;;;5147502;27;20622;-83
2022/04/11 07:33:22;;;;;;;7.90;7.10;;;7.60;99.90;;;;;;5142487;27;20660;-83
2022/04/11 07:35:49;;;;;;;9.80;6.63;;;7.80;99.90;;;;;;5144207;27;20684;-84
2022/04/11 07:38:16;;;;;;;7.30;6.67;;;7.90;99.90;;;;;;5145112;27;20668;-83
2022/04/11 07:40:44;;;;;;;6.43;5.93;;;7.90;99.90;;;;;;5147390;27;20635;-83
2022/04/11 07:43:11;;;;;;;7.23;6.37;;;8.10;99.90;;;;;;5143823;27;20633;-83
2022/04/11 07:45:38;;;;;;;6.70;5.90;;;8.60;99.90;;;;;;5141790;27;20621;-83
2022/04/11 07:48:05;;;;;;;6.40;5.80;;;8.20;99.90;;;;;;5140404;27;20640;-83
2022/04/11 07:50:32;;;;;;;6.07;5.50;;;8.70;99.90;;;;;;5145115;27;20653;-83
2022/04/11 07:52:59;;;;;;;8.90;5.53;;;8.80;99.90;;;;;;5144003;27;20673;-83
2022/04/11 07:55:26;;;;;;;7.17;5.30;;;9.40;99.90;;;;;;5143136;27;20608;-83
2022/04/11 07:57:54;;;;;;;4.90;4.50;;;9.20;99.90;;;;;;5143497;27;20760;-83
2022/04/11 08:00:22;;;;;;;4.13;3.80;;;9.10;99.90;;;;;;5137240;27;21009;-83
2022/04/11 08:02:51;;;;;;;5.07;3.50;;;9.30;99.90;;;;;;5142475;27;20621;-84
2022/04/11 08:05:19;;;;;;;4.30;3.53;;;9.70;99.90;;;;;;5144249;27;20729;-84
2022/04/11 08:07:46;;;;;;;4.63;3.40;;;9.40;99.90;;;;;;5139301;27;20610;-83
2022/04/11 08:10:13;;;;;;;3.43;3.13;;;10.10;99.90;;;;;;5138901;27;20648;-84
2022/04/11 08:12:40;;;;;;;3.50;3.20;;;9.60;99.10;;;;;;5146427;27;20656;-84
2022/04/11 08:15:10;;;;;;;3.67;3.37;;;10.00;98.80;;;;;;5147698;27;20605;-83
2022/04/11 08:17:39;;;;;;;4.00;3.53;;;10.20;98.00;;;;;;5148942;27;20661;-84
2022/04/11 08:20:07;;;;;;;4.10;2.93;;;10.30;98.20;;;;;;5148552;27;20995;-84
2022/04/11 08:22:33;;;;;;;3.60;3.20;;;10.50;97.50;;;;;;5132982;27;20626;-84
2022/04/11 08:25:00;;;;;;;3.50;3.20;;;10.40;95.60;;;;;;5140781;27;20645;-84
2022/04/11 08:27:27;;;;;;;5.13;3.07;;;10.70;96.10;;;;;;5142688;27;20618;-84
2022/04/11 08:29:54;;;;;;;3.30;3.00;;;10.80;95.30;;;;;;5141421;27;20654;-84
2022/04/11 08:32:22;;;;;;;3.77;3.20;;;10.70;95.70;;;;;;5146855;27;20617;-84
2022/04/11 08:34:48;;;;;;;3.73;2.80;;;11.10;92.70;;;;;;5144151;27;20614;-85
2022/04/11 08:37:15;;;;;;;4.57;2.90;;;11.20;92.00;;;;;;5135936;27;20987;-84
2022/04/11 08:39:42;;;;;;;6.07;3.10;;;10.90;91.20;;;;;;5141903;27;20641;-84
2022/04/11 08:42:09;;;;;;;3.20;2.70;;;11.10;91.20;;;;;;5140372;27;20633;-83
2022/04/11 08:44:37;;;;;;;7.03;3.57;;;11.40;91.50;;;;;;5143735;27;21155;-84
2022/04/11 08:47:06;;;;;;;6.17;3.33;;;11.00;90.50;;;;;;5144897;27;20684;-84
2022/04/11 08:49:35;;;;;;;2.80;2.60;;;11.40;90.50;;;;;;5136976;27;20646;-84
2022/04/11 08:52:05;;;;;;;2.83;2.60;;;11.20;88.80;;;;;;5141679;27;20623;-83
2022/04/11 08:54:32;;;;;;;3.13;2.83;;;11.40;88.30;;;;;;5135998;27;20630;-84
2022/04/11 08:56:58;;;;;;;2.90;2.70;;;11.40;88.90;;;;;;5146185;27;20633;-84
2022/04/11 08:59:25;;;;;;;4.47;2.90;;;11.20;86.10;;;;;;5136389;27;20685;-84
2022/04/11 09:01:52;;;;;;;2.50;2.30;;;11.60;84.60;;;;;;5139467;27;20684;-84
2022/04/11 09:04:19;;;;;;;2.53;2.43;;;11.70;85.40;;;;;;5141867;27;20610;-84
2022/04/11 09:06:55;;;;;;;3.00;2.13;;;11.90;85.80;;;;;;5145210;27;20615;-84
2022/04/11 09:09:37;;;;;;;5.53;2.60;;;12.00;83.60;;;;;;5141055;27;20663;-84
2022/04/11 09:12:04;;;;;;;3.60;2.30;;;12.10;81.00;;;;;;5144577;27;20713;-84
2022/04/11 09:14:32;;;;;;;4.00;2.47;;;12.00;79.70;;;;;;5137369;27;20627;-83
2022/04/11 09:16:59;;;;;;;2.90;2.70;;;12.10;84.10;;;;;;5140766;27;20633;-84
2022/04/11 09:19:28;;;;;;;3.20;2.90;;;12.20;82.80;;;;;;5142517;27;20669;-84
2022/04/11 09:21:56;;;;;;;3.03;1.80;;;12.20;75.40;;;;;;5140488;27;20948;-84
2022/04/11 09:24:26;;;;;;;3.57;2.23;;;12.30;76.40;;;;;;5137689;27;20625;-84
2022/04/11 09:26:55;;;;;;;3.10;2.53;;;12.50;75.80;;;;;;5144464;27;20613;-84
2022/04/11 09:29:22;;;;;;;4.90;3.27;;;12.60;79.20;;;;;;5138719;27;20649;-84
2022/04/11 09:31:49;;;;;;;4.10;2.00;;;12.80;77.90;;;;;;5142100;27;20637;-84
2022/04/11 09:34:20;;;;;;;2.27;2.17;;;12.90;76.70;;;;;;5142544;27;20617;-84
2022/04/11 09:36:49;;;;;;;3.40;2.40;;;12.90;72.50;;;;;;5136520;27;20618;-84
2022/04/11 09:39:21;;;;;;;2.97;2.53;;;12.90;73.90;;;;;;5141693;27;20681;-83
2022/04/11 09:41:48;;;;;;;4.73;3.20;;;13.00;74.50;;;;;;5140466;27;20638;-84
2022/04/11 09:44:23;;;;;;;3.00;2.40;;;13.20;77.50;;;;;;5147052;27;20624;-84
2022/04/11 09:46:50;;;;;;;3.30;2.57;;;13.40;76.20;;;;;;5142956;27;20630;-84
2022/04/11 09:49:16;;;;;;;2.30;2.10;;;13.50;75.00;;;;;;5137559;27;20648;-84
2022/04/11 09:52:07;;;;;;;5.03;2.20;;;13.60;71.90;;;;;;5144003;27;21055;-83
2022/04/11 09:54:37;;;;;;;2.10;1.53;;;13.70;72.90;;;;;;5136638;27;20622;-83
2022/04/11 09:57:05;;;;;;;1.80;1.70;;;13.70;69.70;;;;;;5138138;27;20979;-84
2022/04/11 09:59:33;;;;;;;2.67;2.47;;;13.70;68.90;;;;;;5142112;27;20688;-83
2022/04/11 10:02:00;;;;;;;2.50;1.90;;;13.60;68.00;;;;;;5142772;27;21003;-85
2022/04/11 10:04:27;;;;;;;3.60;2.30;;;13.70;66.80;;;;;;5143402;27;20629;-84
2022/04/11 10:06:55;;;;;;;3.23;2.60;;;13.70;66.40;;;;;;5147299;27;20637;-85
2022/04/11 10:09:23;;;;;;;2.03;1.70;;;13.80;68.00;;;;;;5144092;27;21007;-83
2022/04/11 10:11:53;;;;;;;2.20;1.83;;;13.90;64.90;;;;;;5144884;27;21311;-86
2022/04/11 10:14:25;;;;;;;2.43;2.23;;;14.10;62.60;;;;;;5139326;27;21189;-86
2022/04/11 10:16:54;;;;;;;3.60;1.90;;;14.10;61.40;;;;;;5147676;27;20905;-85
2022/04/11 10:19:25;;;;;;;1.77;1.67;;;14.40;65.00;;;;;;5141080;27;20676;-84
2022/04/11 10:21:54;;;;;;;2.47;2.27;;;14.60;63.30;;;;;;5136123;27;20625;-85
2022/04/11 10:24:33;;;;;;;2.80;2.50;;;14.80;61.20;;;;;;5141921;27;20617;-84
2022/04/11 10:27:15;;;;;;;3.47;1.70;;;14.80;59.40;;;;;;5142663;27;20624;-85
2022/04/11 10:29:43;;;;;;;3.30;2.00;;;15.00;61.80;;;;;;5145632;27;21249;-84
2022/04/11 10:32:11;;;;;;;3.23;2.50;;;15.20;61.40;;;;;;5144703;27;20597;-84
2022/04/11 10:34:46;;;;;;;3.20;1.90;;;15.40;57.30;;;;;;5141882;27;20612;-85
2022/04/11 10:37:13;;;;;;;5.67;2.20;;;15.60;58.60;;;;;;5144602;27;20621;-84
2022/04/11 10:39:40;;;;;;;3.47;2.00;;;15.80;58.10;;;;;;5141814;27;20681;-84
2022/04/11 10:42:10;;;;;;;1.90;1.53;;;16.20;57.60;;;;;;5146476;27;20629;-85
2022/04/11 10:44:38;;;;;;;2.73;1.90;;;16.40;56.20;;;;;;5146034;27;20683;-85
2022/04/11 10:47:26;;;;;;;4.03;1.73;;;16.70;55.90;;;;;;5146596;27;20622;-85
2022/04/11 10:50:24;;;;;;;3.10;2.07;;;16.70;54.80;;;;;;5144973;27;21086;-85
2022/04/11 10:53:15;;;;;;;6.20;1.97;;;17.10;54.80;;;;;;5143150;27;20652;-85
2022/04/11 10:55:59;;;;;;;3.03;1.57;;;17.40;54.60;;;;;;5143779;27;21197;-84
2022/04/11 10:58:42;;;;;;;2.80;2.03;;;17.60;54.10;;;;;;5141881;27;20641;-85
2022/04/11 11:01:10;;;;;;;2.07;1.83;;;17.60;51.30;;;;;;5147608;27;21058;-84
2022/04/11 11:03:39;;;;;;;2.67;1.50;;;17.60;50.10;;;;;;5146476;27;20633;-84
2022/04/11 11:06:18;;;;;;;2.07;1.87;;;17.70;50.70;;;;;;5147477;27;20613;-85
2022/04/11 11:08:45;;;;;;;2.07;1.60;;;18.10;52.30;;;;;;5143335;27;20673;-83
2022/04/11 11:11:25;;;;;;;2.70;2.20;;;18.50;51.10;;;;;;5139948;27;20628;-84
2022/04/11 11:13:55;;;;;;;2.97;2.57;;;18.80;48.60;;;;;;5147405;27;20620;-84
2022/04/11 11:16:56;;;;;;;1.97;1.87;;;19.00;47.00;;;;;;5146804;27;20632;-84
2022/04/11 11:19:23;;;;;;;3.27;2.80;;;18.80;47.60;;;;;;5142058;27;20771;-84
2022/04/11 11:22:04;;;;;;;2.20;1.93;;;19.10;48.00;;;;;;5141007;27;20617;-84
2022/04/11 11:24:31;;;;;;;1.87;1.77;;;19.20;47.10;;;;;;5149799;27;20604;-84
2022/04/11 11:27:03;;;;;;;1.90;1.80;;;19.50;46.20;;;;;;5138034;27;20627;-84
2022/04/11 11:29:33;;;;;;;2.63;2.20;;;19.30;46.40;;;;;;5148147;27;20637;-84
2022/04/11 11:32:01;;;;;;;2.73;2.53;;;19.50;45.20;;;;;;5142541;27;20617;-84
2022/04/11 11:34:30;;;;;;;2.50;1.90;;;19.60;45.40;;;;;;5144097;27;20618;-84
2022/04/11 11:37:01;;;;;;;3.23;2.10;;;20.00;46.50;;;;;;5145237;27;20653;-84
2022/04/11 11:39:30;;;;;;;3.90;2.37;;;20.50;43.40;;;;;;5142869;27;20665;-84
2022/04/11 11:42:03;;;;;;;2.40;2.20;;;20.20;41.80;;;;;;5146549;27;20977;-85
2022/04/11 11:44:32;;;;;;;2.60;1.87;;;20.40;41.50;;;;;;5147829;27;21043;-84
2022/04/11 11:47:00;;;;;;;2.40;2.20;;;20.60;42.40;;;;;;5143870;27;20640;-84
2022/04/11 11:49:29;;;;;;;2.73;2.50;;;21.00;41.70;;;;;;5140979;27;20648;-84
2022/04/11 11:51:56;;;;;;;2.07;1.90;;;20.90;41.60;;;;;;5145635;27;21207;-85
2022/04/11 11:54:34;;;;;;;2.17;2.00;;;21.00;41.60;;;;;;5140439;27;20625;-84
2022/04/11 11:57:01;;;;;;;2.07;1.97;;;21.60;41.90;;;;;;5147590;27;20621;-84
2022/04/11 11:59:28;;;;;;;2.23;2.03;;;21.90;40.90;;;;;;5143509;27;20676;-84
2022/04/11 12:04:37;;;;;;;2.63;2.10;;;21.60;38.70;;;;;;5134215;27;20638;-85
2022/04/11 12:07:04;;;;;;;2.10;1.93;;;21.70;38.50;;;;;;5143764;27;20622;-84
2022/04/11 12:09:35;;;;;;;2.87;2.37;;;22.00;39.60;;;;;;5141518;27;20648;-84
2022/04/11 12:12:03;;;;;;;4.77;2.40;;;21.50;38.50;;;;;;5139960;27;21040;-85
2022/04/11 12:14:29;;;;;;;3.10;1.90;;;21.80;38.70;;;;;;5143134;27;20617;-85
2022/04/11 12:17:00;;;;;;;2.47;2.10;;;22.20;38.60;;;;;;5144951;27;21042;-84
2022/04/11 12:19:34;;;;;;;3.93;2.33;;;22.20;38.20;;;;;;5142988;27;20675;-84
2022/04/11 12:22:13;;;;;;;4.60;2.20;;;22.70;38.70;;;;;;5136889;27;20701;-84
2022/04/11 12:24:41;;;;;;;2.80;1.90;;;23.30;37.60;;;;;;5143531;27;20613;-84
2022/04/11 12:27:13;;;;;;;1.93;1.83;;;23.00;35.80;;;;;;5143260;27;20625;-84
2022/04/11 12:29:41;;;;;;;3.47;2.03;;;22.90;36.40;;;;;;5137997;27;20671;-84
2022/04/11 12:32:14;;;;;;;2.33;2.17;;;22.80;35.00;;;;;;5146196;27;20621;-84
2022/04/11 12:34:42;;;;;;;2.80;2.17;;;22.90;36.00;;;;;;5143647;27;20614;-84
2022/04/11 12:37:11;;;;;;;2.13;2.00;;;23.30;37.40;;;;;;5143226;27;20712;-85
2022/04/11 12:39:51;;;;;;;2.80;2.60;;;23.50;35.60;;;;;;5142845;27;21100;-85
2022/04/11 12:42:19;;;;;;;3.33;2.60;;;23.50;35.70;;;;;;5141434;27;20635;-84
2022/04/11 12:44:46;;;;;;;2.13;2.00;;;24.10;36.10;;;;;;5140481;27;20626;-85
2022/04/11 12:47:14;;;;;;;2.60;2.40;;;24.50;36.10;;;;;;5140564;27;20712;-85
2022/04/11 12:49:45;;;;;;;3.33;2.80;;;24.60;35.70;;;;;;5146080;27;20648;-85
2022/04/11 12:52:13;;;;;;;2.67;2.40;;;24.10;34.10;;;;;;5142210;27;20613;-84
2022/04/11 12:54:41;;;;;;;2.17;1.97;;;23.70;35.40;;;;;;5139702;27;21159;-85
2022/04/11 12:57:10;;;;;;;2.30;2.20;;;24.30;36.40;;;;;;5139394;27;20716;-85
2022/04/11 12:59:40;;;;;;;2.70;2.50;;;24.50;34.80;;;;;;5142607;27;20669;-85
2022/04/11 13:02:08;;;;;;;3.10;2.80;;;24.80;35.60;;;;;;5140950;27;20636;-85